createdAt,value
2018-07-25T00:01:31.069Z,9.97
2018-07-25T00:03:59.392Z,9.40
2018-07-25T00:06:27.716Z,9.43
2018-07-25T00:08:56.032Z,9.23
2018-07-25T00:11:24.404Z,8.97
2018-07-25T00:13:52.908Z,9.20
2018-07-25T00:16:21.272Z,9.30
2018-07-25T00:18:49.577Z,9.00
2018-07-25T00:21:17.934Z,9.40
2018-07-25T00:23:46.232Z,8.40
2018-07-25T00:26:14.576Z,9.10
2018-07-25T00:28:42.880Z,8.87
2018-07-25T00:31:11.207Z,8.97
2018-07-25T00:33:39.516Z,9.13
2018-07-25T00:36:07.985Z,9.03
2018-07-25T00:38:36.276Z,8.90
2018-07-25T00:41:04.599Z,9.40
2018-07-25T00:43:32.894Z,9.03
2018-07-25T00:46:01.221Z,9.40
2018-07-25T00:48:29.532Z,9.53
2018-07-25T00:50:57.889Z,9.23
2018-07-25T00:53:26.191Z,8.63
2018-07-25T00:55:54.504Z,9.80
2018-07-25T00:58:22.816Z,9.43
2018-07-25T01:00:51.186Z,8.50
2018-07-25T01:03:19.473Z,8.50
2018-07-25T01:05:47.836Z,10.60
2018-07-25T01:08:16.159Z,10.40
2018-07-25T01:10:44.492Z,8.53
2018-07-25T01:13:13.079Z,8.50
2018-07-25T01:15:41.792Z,9.77
2018-07-25T01:18:10.139Z,10.47
2018-07-25T01:20:38.499Z,10.63
2018-07-25T01:23:06.928Z,9.67
2018-07-25T01:25:35.239Z,9.60
2018-07-25T01:28:03.595Z,9.70
2018-07-25T01:30:31.997Z,10.67
2018-07-25T01:33:00.319Z,8.97
2018-07-25T01:35:28.655Z,10.40
2018-07-25T01:37:56.988Z,9.37
2018-07-25T01:40:25.328Z,10.40
2018-07-25T01:42:53.753Z,9.87
2018-07-25T01:45:22.284Z,10.03
2018-07-25T01:47:50.646Z,10.00
2018-07-25T01:50:18.973Z,9.40
2018-07-25T01:52:47.324Z,10.20
2018-07-25T01:55:15.636Z,10.37
2018-07-25T01:57:43.953Z,9.63
2018-07-25T02:00:12.291Z,11.30
2018-07-25T02:02:40.615Z,10.90
2018-07-25T02:05:08.999Z,11.27
2018-07-25T02:07:37.320Z,10.53
2018-07-25T02:10:06.020Z,10.33
2018-07-25T02:12:34.793Z,10.40
2018-07-25T02:15:03.149Z,10.70
2018-07-25T02:17:31.488Z,10.27
2018-07-25T02:20:00.802Z,11.30
2018-07-25T02:22:29.124Z,10.37
2018-07-25T02:24:57.472Z,9.83
2018-07-25T02:27:25.821Z,11.23
2018-07-25T02:29:54.144Z,10.40
2018-07-25T02:32:22.473Z,10.10
2018-07-25T02:34:50.812Z,9.60
2018-07-25T02:37:20.042Z,10.67
2018-07-25T02:39:48.357Z,10.83
2018-07-25T02:42:16.681Z,11.17
2018-07-25T02:44:44.992Z,11.23
2018-07-25T02:47:13.325Z,10.77
2018-07-25T02:49:41.648Z,11.80
2018-07-25T02:52:10.022Z,11.23
2018-07-25T02:54:38.328Z,10.93
2018-07-25T02:57:06.669Z,10.33
2018-07-25T02:59:34.969Z,11.20
2018-07-25T03:02:03.346Z,11.20
2018-07-25T03:04:31.676Z,11.10
2018-07-25T03:07:00.066Z,11.53
2018-07-25T03:09:28.400Z,11.40
2018-07-25T03:11:56.732Z,10.70
2018-07-25T03:14:25.145Z,11.27
2018-07-25T03:16:53.456Z,12.37
2018-07-25T03:19:21.801Z,11.47
2018-07-25T03:21:50.091Z,11.20
2018-07-25T03:24:18.663Z,10.93
2018-07-25T03:26:46.961Z,11.80
2018-07-25T03:29:15.301Z,11.60
2018-07-25T03:31:43.609Z,12.23
2018-07-25T03:34:11.935Z,10.67
2018-07-25T03:36:40.232Z,10.90
2018-07-25T03:39:09.180Z,10.83
2018-07-25T03:41:37.480Z,10.70
2018-07-25T03:44:05.817Z,15.60
2018-07-25T03:46:34.116Z,12.60
2018-07-25T03:49:02.471Z,12.27
2018-07-25T03:51:30.846Z,11.83
2018-07-25T03:53:59.176Z,21.80
2018-07-25T03:56:27.504Z,15.57
2018-07-25T03:58:55.828Z,15.13
2018-07-25T04:01:24.157Z,15.37
2018-07-25T04:03:52.481Z,13.70
2018-07-25T04:06:20.789Z,14.47
2018-07-25T04:08:49.124Z,14.80
2018-07-25T04:11:17.438Z,12.73
2018-07-25T04:13:45.763Z,12.90
2018-07-25T04:16:14.057Z,16.80
2018-07-25T04:18:42.361Z,16.30
2018-07-25T04:21:10.752Z,12.73
2018-07-25T04:23:39.077Z,13.87
2018-07-25T04:26:08.428Z,11.67
2018-07-25T04:28:36.729Z,11.67
2018-07-25T04:31:05.216Z,11.63
2018-07-25T04:33:33.523Z,10.63
2018-07-25T04:36:07.220Z,13.10
2018-07-25T04:38:35.520Z,12.83
2018-07-25T04:41:03.933Z,11.80
2018-07-25T04:43:32.253Z,11.13
2018-07-25T04:46:00.650Z,11.67
2018-07-25T04:48:28.936Z,12.30
2018-07-25T04:50:57.288Z,11.90
2018-07-25T04:53:25.572Z,11.90
2018-07-25T04:55:53.921Z,12.10
2018-07-25T04:58:22.216Z,12.80
2018-07-25T05:00:50.933Z,13.17
2018-07-25T05:03:19.250Z,12.17
2018-07-25T05:05:47.639Z,12.33
2018-07-25T05:08:15.935Z,11.20
2018-07-25T05:10:44.262Z,12.60
2018-07-25T05:13:12.598Z,12.17
2018-07-25T05:15:40.934Z,11.90
2018-07-25T05:18:09.265Z,12.00
2018-07-25T05:20:37.607Z,12.70
2018-07-25T05:23:06.014Z,12.60
2018-07-25T05:25:34.367Z,11.60
2018-07-25T05:28:02.676Z,11.93
2018-07-25T05:30:31.024Z,11.73
2018-07-25T05:32:59.388Z,11.77
2018-07-25T05:35:27.745Z,11.53
2018-07-25T05:37:56.073Z,11.90
2018-07-25T05:40:24.405Z,11.30
2018-07-25T05:42:52.817Z,11.60
2018-07-25T05:45:21.405Z,11.43
2018-07-25T05:47:49.723Z,11.90
2018-07-25T05:50:18.038Z,10.70
2018-07-25T05:52:46.384Z,11.60
2018-07-25T05:55:14.695Z,10.63
2018-07-25T05:57:43.023Z,11.20
2018-07-25T06:00:11.419Z,10.63
2018-07-25T06:02:39.850Z,9.40
2018-07-25T06:05:08.158Z,9.57
2018-07-25T06:07:36.580Z,9.30
2018-07-25T06:10:04.932Z,10.20
2018-07-25T06:12:33.580Z,9.90
2018-07-25T06:15:01.985Z,8.33
2018-07-25T06:17:30.325Z,8.80
2018-07-25T06:19:58.640Z,10.10
2018-07-25T06:22:26.964Z,8.80
2018-07-25T06:27:46.891Z,8.50
2018-07-25T06:30:17.359Z,7.83
2018-07-25T06:32:46.312Z,9.10
2018-07-25T06:35:17.526Z,8.23
2018-07-25T06:37:47.855Z,9.90
2018-07-25T06:40:16.624Z,9.43
2018-07-25T06:45:50.973Z,8.03
2018-07-25T06:48:20.324Z,10.10
2018-07-25T06:50:50.783Z,8.30
2018-07-25T06:53:19.483Z,8.13
2018-07-25T06:55:47.890Z,9.57
2018-07-25T06:58:18.357Z,8.10
2018-07-25T07:00:46.744Z,7.43
2018-07-25T07:03:15.073Z,7.43
2018-07-25T07:05:43.355Z,7.80
2018-07-25T07:08:11.853Z,7.40
2018-07-25T07:10:40.178Z,6.93
2018-07-25T07:13:08.497Z,7.50
2018-07-25T07:15:36.791Z,8.97
2018-07-25T07:18:05.365Z,8.20
2018-07-25T07:20:33.694Z,7.37
2018-07-25T07:23:02.025Z,8.90
2018-07-25T07:25:30.468Z,7.80
2018-07-25T07:27:58.784Z,8.00
2018-07-25T07:30:27.077Z,8.27
2018-07-25T07:32:55.385Z,8.13
2018-07-25T07:35:23.692Z,6.60
2018-07-25T07:37:52.074Z,7.43
2018-07-25T07:40:20.308Z,6.53
2018-07-25T07:42:48.832Z,6.50
2018-07-25T07:45:17.128Z,6.83
2018-07-25T07:47:45.473Z,6.30
2018-07-25T07:50:13.765Z,8.20
2018-07-25T07:52:42.097Z,7.70
2018-07-25T07:55:10.412Z,7.70
2018-07-25T07:57:38.787Z,5.90
2018-07-25T08:00:07.224Z,7.97
2018-07-25T08:02:36.912Z,9.07
2018-07-25T08:05:05.506Z,6.07
2018-07-25T08:07:33.776Z,6.73
2018-07-25T08:10:07.432Z,7.00
2018-07-25T08:12:35.804Z,7.10
2018-07-25T08:15:05.380Z,6.23
2018-07-25T08:17:33.690Z,5.90
2018-07-25T08:20:02.096Z,10.90
2018-07-25T08:22:30.383Z,7.87
2018-07-25T08:24:58.732Z,8.10
2018-07-25T08:27:27.094Z,7.67
2018-07-25T08:29:55.402Z,7.23
2018-07-25T08:32:23.750Z,7.20
2018-07-25T08:34:52.131Z,7.03
2018-07-25T08:37:20.496Z,6.33
2018-07-25T08:39:48.820Z,5.90
2018-07-25T08:42:17.253Z,5.93
2018-07-25T08:44:45.570Z,5.80
2018-07-25T08:47:13.862Z,6.13
2018-07-25T08:49:42.193Z,13.07
2018-07-25T08:52:10.512Z,5.80
2018-07-25T08:54:38.836Z,6.00
2018-07-25T08:57:07.393Z,5.70
2018-07-25T08:59:35.740Z,6.20
2018-07-25T09:02:04.092Z,5.83
2018-07-25T09:04:32.402Z,6.30
2018-07-25T09:07:00.728Z,6.10
2018-07-25T09:09:29.056Z,6.50
2018-07-25T09:11:57.361Z,6.20
2018-07-25T09:14:25.736Z,5.77
2018-07-25T09:16:54.065Z,7.50
2018-07-25T09:19:22.386Z,5.97
2018-07-25T09:21:50.696Z,5.50
2018-07-25T09:24:19.017Z,5.57
2018-07-25T09:26:47.316Z,6.20
2018-07-25T09:29:15.639Z,5.60
2018-07-25T09:31:43.941Z,5.53
2018-07-25T09:34:12.366Z,6.30
2018-07-25T09:36:40.640Z,5.37
2018-07-25T09:39:10.245Z,6.60
2018-07-25T09:41:38.582Z,5.80
2018-07-25T09:44:06.928Z,6.30
2018-07-25T09:46:35.532Z,5.70
2018-07-25T09:49:03.846Z,6.37
2018-07-25T09:51:32.301Z,5.53
2018-07-25T09:54:00.621Z,5.60
2018-07-25T09:56:29.086Z,6.20
2018-07-25T09:58:57.646Z,5.53
2018-07-25T10:01:26.018Z,5.47
2018-07-25T10:03:54.313Z,6.00
2018-07-25T10:06:22.639Z,5.73
2018-07-25T10:08:51.102Z,6.03
2018-07-25T10:11:19.517Z,6.00
2018-07-25T10:13:47.809Z,5.97
2018-07-25T10:16:16.157Z,5.43
2018-07-25T10:18:44.472Z,5.83
2018-07-25T10:21:13.020Z,6.30
2018-07-25T10:23:41.372Z,6.13
2018-07-25T10:26:10.689Z,5.40
2018-07-25T10:28:39.131Z,5.80
2018-07-25T10:31:07.451Z,5.90
2018-07-25T10:33:35.757Z,5.90
2018-07-25T10:36:04.093Z,6.03
2018-07-25T10:38:32.557Z,5.73
2018-07-25T10:41:00.893Z,5.93
2018-07-25T10:43:29.230Z,6.40
2018-07-25T10:45:57.704Z,5.70
2018-07-25T10:48:25.919Z,5.27
2018-07-25T10:50:54.474Z,5.73
2018-07-25T10:53:22.820Z,6.50
2018-07-25T10:55:51.603Z,5.97
2018-07-25T10:58:25.003Z,5.07
2018-07-25T11:00:53.661Z,4.77
2018-07-25T11:03:22.135Z,4.87
2018-07-25T11:05:50.484Z,5.50
2018-07-25T11:08:18.816Z,5.53
2018-07-25T11:10:47.950Z,4.67
2018-07-25T11:13:16.299Z,4.90
2018-07-25T11:15:44.666Z,5.50
2018-07-25T11:18:14.039Z,4.83
2018-07-25T11:20:49.194Z,5.87
2018-07-25T11:23:20.086Z,5.13
2018-07-25T11:25:52.693Z,5.27
2018-07-25T11:28:24.144Z,5.20
2018-07-25T11:30:56.841Z,5.10
2018-07-25T11:33:25.302Z,5.23
2018-07-25T11:35:56.556Z,5.53
2018-07-25T11:38:25.092Z,4.77
2018-07-25T11:40:53.411Z,5.40
2018-07-25T11:43:21.744Z,5.20
2018-07-25T11:45:50.033Z,5.37
2018-07-25T11:48:18.338Z,5.10
2018-07-25T11:50:46.672Z,5.17
2018-07-25T11:53:14.985Z,5.03
2018-07-25T11:55:43.365Z,5.37
2018-07-25T11:58:11.642Z,5.37
2018-07-25T12:00:40.069Z,4.90
2018-07-25T12:03:08.460Z,5.53
2018-07-25T12:05:36.774Z,4.90
2018-07-25T12:08:05.317Z,5.03
2018-07-25T12:10:33.652Z,5.93
2018-07-25T12:13:02.199Z,4.90
2018-07-25T12:15:30.424Z,5.37
2018-07-25T12:17:58.793Z,5.90
2018-07-25T12:20:27.093Z,5.43
2018-07-25T12:22:55.436Z,5.60
2018-07-25T12:25:23.841Z,5.20
2018-07-25T12:27:52.244Z,5.10
2018-07-25T12:30:20.569Z,5.87
2018-07-25T12:32:49.006Z,4.93
2018-07-25T12:35:17.533Z,5.33
2018-07-25T12:37:46.373Z,5.60
2018-07-25T12:40:14.694Z,5.00
2018-07-25T12:42:43.095Z,5.87
2018-07-25T12:45:11.372Z,5.00
2018-07-25T12:47:39.889Z,4.90
2018-07-25T12:50:08.233Z,5.70
2018-07-25T12:52:36.560Z,5.63
2018-07-25T12:55:05.016Z,5.37
2018-07-25T12:57:33.366Z,4.87
2018-07-25T13:00:01.726Z,5.57
2018-07-25T13:02:31.050Z,5.90
2018-07-25T13:04:59.400Z,5.20
2018-07-25T13:07:27.807Z,5.53
2018-07-25T13:09:56.205Z,5.30
2018-07-25T13:12:24.537Z,5.60
2018-07-25T13:14:52.956Z,6.33
2018-07-25T13:17:21.281Z,5.37
2018-07-25T13:19:49.624Z,5.67
2018-07-25T13:22:17.926Z,5.80
2018-07-25T13:24:46.289Z,5.47
2018-07-25T13:27:14.821Z,5.53
2018-07-25T13:29:43.225Z,5.73
2018-07-25T13:32:11.562Z,5.10
2018-07-25T13:34:41.218Z,5.20
2018-07-25T13:37:09.529Z,5.00
2018-07-25T13:39:37.924Z,5.50
2018-07-25T13:42:06.324Z,5.20
2018-07-25T13:44:34.764Z,6.23
2018-07-25T13:47:03.104Z,6.07
2018-07-25T13:49:31.437Z,5.20
2018-07-25T13:51:59.849Z,6.80
2018-07-25T13:54:28.246Z,5.90
2018-07-25T13:56:56.892Z,5.90
2018-07-25T13:59:25.240Z,5.90
2018-07-25T14:01:53.608Z,5.70
2018-07-25T14:04:21.948Z,5.47
2018-07-25T14:06:50.254Z,5.30
2018-07-25T14:09:18.582Z,5.70
2018-07-25T14:11:47.019Z,5.93
2018-07-25T14:14:15.241Z,5.33
2018-07-25T14:16:43.609Z,5.37
2018-07-25T14:19:12.050Z,5.80
2018-07-25T14:21:40.358Z,7.20
2018-07-25T14:24:08.986Z,5.90
2018-07-25T14:26:37.135Z,6.20
2018-07-25T14:29:05.560Z,6.47
2018-07-25T14:31:33.889Z,5.60
2018-07-25T14:34:02.214Z,5.70
2018-07-25T14:36:30.564Z,5.80
2018-07-25T14:38:58.873Z,6.20
2018-07-25T14:41:27.208Z,5.30
2018-07-25T14:43:55.528Z,5.13
2018-07-25T14:46:23.876Z,4.87
2018-07-25T14:48:52.179Z,4.30
2018-07-25T14:51:20.726Z,4.77
2018-07-25T14:53:49.057Z,5.13
2018-07-25T14:56:17.417Z,3.80
2018-07-25T14:58:45.753Z,4.60
2018-07-25T15:01:14.167Z,3.67
2018-07-25T15:03:42.553Z,3.37
2018-07-25T15:06:10.897Z,3.80
2018-07-25T15:08:39.213Z,3.90
2018-07-25T15:11:08.567Z,4.20
2018-07-25T15:13:37.467Z,4.40
2018-07-25T15:16:05.937Z,4.40
2018-07-25T15:18:34.260Z,4.70
2018-07-25T15:21:02.695Z,4.27
2018-07-25T15:23:36.516Z,4.77
2018-07-25T15:26:04.832Z,4.77
2018-07-25T15:28:33.123Z,4.67
2018-07-25T15:31:01.477Z,4.23
2018-07-25T15:33:29.789Z,4.57
2018-07-25T15:35:58.145Z,4.40
2018-07-25T15:38:26.545Z,4.53
2018-07-25T15:40:54.945Z,4.73
2018-07-25T15:43:23.273Z,4.33
2018-07-25T15:45:51.708Z,4.83
2018-07-25T15:48:20.056Z,4.47
2018-07-25T15:50:48.652Z,4.47
2018-07-25T15:53:17.537Z,4.67
2018-07-25T15:55:45.861Z,4.43
2018-07-25T15:58:14.181Z,5.20
2018-07-25T16:00:42.580Z,4.57
2018-07-25T16:03:10.919Z,4.93
2018-07-25T16:05:39.244Z,5.20
2018-07-25T16:08:07.571Z,5.13
2018-07-25T16:10:35.920Z,5.10
2018-07-25T16:13:04.448Z,5.33
2018-07-25T16:15:32.866Z,4.87
2018-07-25T16:18:01.180Z,5.30
2018-07-25T16:20:29.661Z,4.97
2018-07-25T16:22:57.992Z,5.23
2018-07-25T16:25:26.559Z,4.93
2018-07-25T16:27:55.047Z,5.73
2018-07-25T16:30:23.610Z,4.93
2018-07-25T16:32:52.113Z,4.77
2018-07-25T16:35:20.431Z,5.10
2018-07-25T16:37:48.865Z,4.40
2018-07-25T16:40:17.195Z,4.97
2018-07-25T16:42:45.623Z,4.60
2018-07-25T16:45:13.973Z,4.77
2018-07-25T16:47:42.336Z,5.03
2018-07-25T16:50:10.726Z,4.30
2018-07-25T16:52:39.293Z,4.97
2018-07-25T16:55:07.773Z,5.50
2018-07-25T16:57:36.326Z,4.47
2018-07-25T17:00:05.176Z,3.57
2018-07-25T17:02:33.592Z,3.80
2018-07-25T17:05:01.920Z,4.23
2018-07-25T17:07:30.274Z,4.90
2018-07-25T17:09:58.861Z,4.47
2018-07-25T17:12:27.193Z,3.97
2018-07-25T17:14:55.741Z,4.07
2018-07-25T17:17:24.096Z,4.67
2018-07-25T17:19:52.421Z,5.27
2018-07-25T17:22:21.178Z,4.90
2018-07-25T17:24:49.475Z,4.63
2018-07-25T17:27:17.962Z,4.47
2018-07-25T17:29:46.325Z,4.20
2018-07-25T17:32:14.664Z,4.63
2018-07-25T17:34:42.977Z,4.80
2018-07-25T17:37:11.472Z,4.63
2018-07-25T17:39:39.842Z,4.67
2018-07-25T17:42:08.686Z,5.17
2018-07-25T17:44:36.990Z,4.90
2018-07-25T17:47:05.393Z,4.70
2018-07-25T17:49:33.723Z,4.63
2018-07-25T17:52:02.036Z,4.20
2018-07-25T17:54:30.479Z,4.57
2018-07-25T17:56:58.840Z,4.77
2018-07-25T17:59:27.127Z,5.30
2018-07-25T18:01:55.556Z,5.00
2018-07-25T18:04:23.942Z,4.97
2018-07-25T18:06:52.248Z,4.63
2018-07-25T18:09:20.696Z,4.47
2018-07-25T18:11:49.029Z,5.27
2018-07-25T18:14:20.067Z,4.77
2018-07-25T18:16:48.645Z,4.43
2018-07-25T18:19:17.076Z,4.97
2018-07-25T18:21:45.473Z,4.57
2018-07-25T18:24:13.860Z,5.57
2018-07-25T18:26:42.200Z,4.60
2018-07-25T18:29:10.549Z,4.93
2018-07-25T18:31:38.892Z,4.90
2018-07-25T18:34:07.406Z,5.17
2018-07-25T18:36:35.712Z,4.97
2018-07-25T18:39:06.009Z,5.50
2018-07-25T18:41:34.330Z,4.67
2018-07-25T18:44:02.680Z,5.03
2018-07-25T18:46:30.985Z,5.70
2018-07-25T18:48:59.356Z,5.40
2018-07-25T18:51:27.684Z,5.47
2018-07-25T18:53:56.495Z,5.20
2018-07-25T18:56:24.816Z,6.03
2018-07-25T18:58:53.190Z,5.67
2018-07-25T19:01:21.625Z,5.80
2018-07-25T19:03:51.037Z,5.20
2018-07-25T19:06:19.346Z,5.20
2018-07-25T19:08:47.676Z,5.20
2018-07-25T19:11:16.000Z,5.37
2018-07-25T19:13:50.760Z,5.67
2018-07-25T19:16:20.314Z,6.00
2018-07-25T19:18:49.857Z,5.20
2018-07-25T19:21:19.402Z,4.73
2018-07-25T19:23:49.322Z,5.80
2018-07-25T19:26:19.611Z,5.47
2018-07-25T19:28:48.547Z,5.53
2018-07-25T19:31:19.201Z,5.30
2018-07-25T19:33:55.394Z,6.03
2018-07-25T19:36:26.350Z,5.90
2018-07-25T19:38:56.901Z,5.90
2018-07-25T19:41:25.495Z,5.53
2018-07-25T19:43:54.914Z,6.00
2018-07-25T19:46:24.045Z,5.67
2018-07-25T19:48:52.942Z,6.10
2018-07-25T19:51:23.125Z,5.50
2018-07-25T19:53:52.953Z,5.30
2018-07-25T19:56:22.361Z,5.50
2018-07-25T19:58:53.236Z,5.17
2018-07-25T20:01:24.950Z,5.50
2018-07-25T20:03:54.588Z,6.37
2018-07-25T20:09:06.099Z,4.60
2018-07-25T20:11:35.957Z,6.73
2018-07-25T20:14:09.873Z,4.73
2018-07-25T20:16:40.723Z,4.60
2018-07-25T20:19:11.978Z,4.67
2018-07-25T20:21:43.207Z,5.80
2018-07-25T20:24:14.207Z,5.17
2018-07-25T20:26:46.614Z,4.87
2018-07-25T20:29:19.939Z,5.40
2018-07-25T20:31:54.169Z,5.03
2018-07-25T20:34:32.358Z,4.90
2018-07-25T20:37:07.427Z,4.33
2018-07-25T20:39:37.114Z,4.80
2018-07-25T20:42:15.631Z,4.83
2018-07-25T20:44:51.675Z,5.60
2018-07-25T20:47:22.461Z,4.10
2018-07-25T20:49:52.522Z,4.67
2018-07-25T20:52:22.996Z,5.17
2018-07-25T20:54:55.332Z,5.17
2018-07-25T20:57:25.348Z,5.43
2018-07-25T20:59:54.252Z,4.87
2018-07-25T21:02:23.317Z,5.30
2018-07-25T21:04:52.612Z,5.57
2018-07-25T21:07:21.954Z,5.70
2018-07-25T21:09:50.835Z,5.53
2018-07-25T21:12:20.732Z,6.17
2018-07-25T21:14:49.649Z,5.50
2018-07-25T21:17:18.285Z,5.30
2018-07-25T21:19:47.221Z,5.97
2018-07-25T21:22:16.819Z,5.97
2018-07-25T21:24:45.778Z,5.27
2018-07-25T21:27:14.117Z,5.80
2018-07-25T21:29:43.062Z,6.07
2018-07-25T21:32:11.376Z,5.70
2018-07-25T21:34:39.705Z,5.73
2018-07-25T21:37:08.234Z,4.97
2018-07-25T21:39:36.832Z,6.23
2018-07-25T21:42:05.320Z,4.77
2018-07-25T21:44:34.076Z,5.80
2018-07-25T21:47:02.567Z,6.27
2018-07-25T21:49:30.924Z,5.90
2018-07-25T21:51:59.520Z,5.80
2018-07-25T21:54:27.990Z,5.93
2018-07-25T21:56:57.156Z,6.40
2018-07-25T21:59:25.545Z,5.53
2018-07-25T22:01:53.894Z,4.80
2018-07-25T22:04:22.229Z,5.23
2018-07-25T22:06:50.549Z,6.43
2018-07-25T22:09:18.852Z,5.70
2018-07-25T22:11:47.175Z,6.10
2018-07-25T22:14:15.502Z,7.07
2018-07-25T22:16:43.829Z,5.40
2018-07-25T22:19:12.126Z,5.77
2018-07-25T22:21:40.440Z,5.30
2018-07-25T22:24:08.735Z,5.87
2018-07-25T22:26:37.036Z,5.13
2018-07-25T22:29:05.336Z,6.17
2018-07-25T22:31:33.656Z,5.40
2018-07-25T22:34:01.965Z,5.67
2018-07-25T22:36:30.317Z,5.87
2018-07-25T22:38:58.606Z,5.53
2018-07-25T22:41:26.916Z,6.67
2018-07-25T22:43:55.232Z,5.93
2018-07-25T22:46:23.538Z,5.33
2018-07-25T22:48:52.027Z,5.70
2018-07-25T22:51:20.358Z,5.37
2018-07-25T22:53:48.668Z,5.80
2018-07-25T22:56:16.986Z,5.70
2018-07-25T22:58:45.386Z,5.07
2018-07-25T23:01:13.902Z,6.33
2018-07-25T23:03:42.232Z,6.10
2018-07-25T23:06:10.657Z,7.13
2018-07-25T23:08:38.988Z,5.23
2018-07-25T23:11:07.291Z,5.27
2018-07-25T23:13:35.804Z,4.80
2018-07-25T23:16:04.140Z,5.50
2018-07-25T23:18:32.447Z,5.10
2018-07-25T23:21:01.100Z,5.43
2018-07-25T23:23:29.460Z,5.60
2018-07-25T23:25:57.753Z,6.43
2018-07-25T23:28:26.061Z,4.73
2018-07-25T23:30:54.341Z,4.87
2018-07-25T23:33:22.648Z,4.90
2018-07-25T23:35:50.956Z,5.33
2018-07-25T23:38:19.278Z,5.00
2018-07-25T23:40:47.639Z,5.17
2018-07-25T23:43:15.984Z,5.20
2018-07-25T23:45:44.278Z,4.77
2018-07-25T23:48:12.789Z,5.10
2018-07-25T23:50:41.148Z,5.27
2018-07-25T23:53:09.549Z,5.50
2018-07-25T23:55:37.839Z,4.70
2018-07-25T23:58:06.161Z,4.90
